sensor_id;sensor_type;location;lat;lon;timestamp;pressure;altitude;pressure_sealevel;temperature;humidity
21504;BME280;10913;51.992;9.228;2022-09-03T00:00:19;100204.13;;;16.14;70.14
21504;BME280;10913;51.992;9.228;2022-09-03T00:06:13;100204.22;;;16.11;71.29
21504;BME280;10913;51.992;9.228;2022-09-03T00:14:08;100201.81;;;16.02;71.49
21504;BME280;10913;51.992;9.228;2022-09-03T00:16:53;100201.84;;;16.01;71.47
21504;BME280;10913;51.992;9.228;2022-09-03T00:19:23;100201.91;;;15.99;71.62
21504;BME280;10913;51.992;9.228;2022-09-03T00:21:57;100201.91;;;15.99;71.55
21504;BME280;10913;51.992;9.228;2022-09-03T00:24:28;100195.78;;;15.97;71.91
21504;BME280;10913;51.992;9.228;2022-09-03T00:26:59;100191.41;;;15.95;72.02
21504;BME280;10913;51.992;9.228;2022-09-03T00:29:34;100195.91;;;15.93;71.62
21504;BME280;10913;51.992;9.228;2022-09-03T00:32:06;100185.28;;;15.91;71.39
21504;BME280;10913;51.992;9.228;2022-09-03T00:34:37;100190.63;;;15.91;71.38
21504;BME280;10913;51.992;9.228;2022-09-03T00:37:07;100189.78;;;15.89;71.48
21504;BME280;10913;51.992;9.228;2022-09-03T00:39:35;100184.50;;;15.88;71.92
21504;BME280;10913;51.992;9.228;2022-09-03T00:42:26;100184.56;;;15.86;71.89
21504;BME280;10913;51.992;9.228;2022-09-03T00:50:21;100176.72;;;15.80;71.33
21504;BME280;10913;51.992;9.228;2022-09-03T00:53:03;100178.47;;;15.81;71.66
21504;BME280;10913;51.992;9.228;2022-09-03T01:01:12;100176.84;;;15.77;71.97
21504;BME280;10913;51.992;9.228;2022-09-03T01:06:48;100181.31;;;15.76;71.86
21504;BME280;10913;51.992;9.228;2022-09-03T01:12:11;100171.56;;;15.75;71.93
21504;BME280;10913;51.992;9.228;2022-09-03T01:20:08;100187.50;;;15.77;72.34
21504;BME280;10913;51.992;9.228;2022-09-03T01:33:49;100187.69;;;15.71;72.32
21504;BME280;10913;51.992;9.228;2022-09-03T01:36:35;100192.22;;;15.67;72.22
21504;BME280;10913;51.992;9.228;2022-09-03T01:39:05;100192.19;;;15.69;72.57
21504;BME280;10913;51.992;9.228;2022-09-03T01:42:01;100191.31;;;15.68;72.18
21504;BME280;10913;51.992;9.228;2022-09-03T01:56:15;100190.56;;;15.63;72.84
21504;BME280;10913;51.992;9.228;2022-09-03T02:01:25;100183.56;;;15.59;72.88
21504;BME280;10913;51.992;9.228;2022-09-03T02:03:52;100189.88;;;15.57;72.94
21504;BME280;10913;51.992;9.228;2022-09-03T02:06:23;100193.41;;;15.57;73.19
21504;BME280;10913;51.992;9.228;2022-09-03T02:08:49;100196.09;;;15.57;73.37
21504;BME280;10913;51.992;9.228;2022-09-03T02:11:14;100189.94;;;15.54;73.65
21504;BME280;10913;51.992;9.228;2022-09-03T02:13:42;100191.81;;;15.50;73.98
21504;BME280;10913;51.992;9.228;2022-09-03T02:16:15;100185.69;;;15.46;74.08
21504;BME280;10913;51.992;9.228;2022-09-03T02:18:57;100187.50;;;15.44;74.24
21504;BME280;10913;51.992;9.228;2022-09-03T02:21:24;100190.25;;;15.41;74.21
21504;BME280;10913;51.992;9.228;2022-09-03T02:23:51;100184.94;;;15.41;74.36
21504;BME280;10913;51.992;9.228;2022-09-03T02:26:23;100187.59;;;15.41;74.02
21504;BME280;10913;51.992;9.228;2022-09-03T02:28:50;100186.72;;;15.41;73.78
21504;BME280;10913;51.992;9.228;2022-09-03T02:31:17;100188.50;;;15.40;73.90
21504;BME280;10913;51.992;9.228;2022-09-03T02:33:45;100181.41;;;15.41;74.20
21504;BME280;10913;51.992;9.228;2022-09-03T02:36:13;100184.19;;;15.38;74.07
21504;BME280;10913;51.992;9.228;2022-09-03T02:38:43;100182.50;;;15.34;74.25
21504;BME280;10913;51.992;9.228;2022-09-03T02:41:09;100187.91;;;15.31;74.66
21504;BME280;10913;51.992;9.228;2022-09-03T02:43:54;100183.53;;;15.28;75.07
21504;BME280;10913;51.992;9.228;2022-09-03T02:46:26;100188.13;;;15.23;75.58
21504;BME280;10913;51.992;9.228;2022-09-03T02:48:54;100187.47;;;15.15;75.70
21504;BME280;10913;51.992;9.228;2022-09-03T02:51:20;100188.47;;;15.11;76.11
21504;BME280;10913;51.992;9.228;2022-09-03T02:53:45;100187.69;;;15.06;76.46
21504;BME280;10913;51.992;9.228;2022-09-03T02:56:11;100186.06;;;15.00;76.61
21504;BME280;10913;51.992;9.228;2022-09-03T02:58:37;100186.22;;;14.96;76.67
21504;BME280;10913;51.992;9.228;2022-09-03T03:01:03;100186.25;;;14.94;76.83
21504;BME280;10913;51.992;9.228;2022-09-03T03:03:29;100183.59;;;14.94;76.73
21504;BME280;10913;51.992;9.228;2022-09-03T03:05:57;100180.06;;;14.94;76.59
21504;BME280;10913;51.992;9.228;2022-09-03T03:08:26;100182.78;;;14.91;76.90
21504;BME280;10913;51.992;9.228;2022-09-03T03:10:54;100184.63;;;14.89;76.86
21504;BME280;10913;51.992;9.228;2022-09-03T03:13:29;100186.44;;;14.87;76.86
21504;BME280;10913;51.992;9.228;2022-09-03T03:15:57;100179.44;;;14.82;77.40
21504;BME280;10913;51.992;9.228;2022-09-03T03:18:22;100173.31;;;14.79;77.39
21504;BME280;10913;51.992;9.228;2022-09-03T03:20:48;100178.75;;;14.76;77.66
21504;BME280;10913;51.992;9.228;2022-09-03T03:23:13;100179.69;;;14.73;77.45
21504;BME280;10913;51.992;9.228;2022-09-03T03:25:38;100177.03;;;14.73;77.15
21504;BME280;10913;51.992;9.228;2022-09-03T03:28:04;100180.63;;;14.72;77.42
21504;BME280;10913;51.992;9.228;2022-09-03T03:30:31;100179.84;;;14.67;77.56
21504;BME280;10913;51.992;9.228;2022-09-03T03:32:57;100181.75;;;14.62;77.80
21504;BME280;10913;51.992;9.228;2022-09-03T03:35:22;100178.25;;;14.60;77.88
21504;BME280;10913;51.992;9.228;2022-09-03T03:37:48;100176.59;;;14.56;77.84
21504;BME280;10913;51.992;9.228;2022-09-03T03:40:14;100182.00;;;14.53;78.27
21504;BME280;10913;51.992;9.228;2022-09-03T03:42:40;100186.53;;;14.48;78.18
21504;BME280;10913;51.992;9.228;2022-09-03T03:45:06;100182.19;;;14.44;78.46
21504;BME280;10913;51.992;9.228;2022-09-03T03:47:32;100178.75;;;14.39;78.78
21504;BME280;10913;51.992;9.228;2022-09-03T03:49:59;100185.97;;;14.34;78.94
21504;BME280;10913;51.992;9.228;2022-09-03T03:52:25;100184.34;;;14.27;79.17
21504;BME280;10913;51.992;9.228;2022-09-03T03:54:51;100182.69;;;14.23;79.24
21504;BME280;10913;51.992;9.228;2022-09-03T03:57:17;100182.75;;;14.20;79.43
21504;BME280;10913;51.992;9.228;2022-09-03T03:59:44;100181.97;;;14.16;79.65
21504;BME280;10913;51.992;9.228;2022-09-03T04:02:09;100178.50;;;14.12;79.63
21504;BME280;10913;51.992;9.228;2022-09-03T04:04:35;100183.88;;;14.09;79.59
21504;BME280;10913;51.992;9.228;2022-09-03T04:07:01;100186.59;;;14.06;79.65
21504;BME280;10913;51.992;9.228;2022-09-03T04:09:26;100179.59;;;14.02;79.96
21504;BME280;10913;51.992;9.228;2022-09-03T04:11:52;100184.06;;;14.00;80.00
21504;BME280;10913;51.992;9.228;2022-09-03T04:14:17;100179.66;;;13.99;79.85
21504;BME280;10913;51.992;9.228;2022-09-03T04:16:43;100181.53;;;13.97;80.06
21504;BME280;10913;51.992;9.228;2022-09-03T04:19:11;100188.63;;;13.95;80.08
21504;BME280;10913;51.992;9.228;2022-09-03T04:21:37;100186.97;;;13.91;80.07
21504;BME280;10913;51.992;9.228;2022-09-03T04:24:04;100178.22;;;13.86;80.34
21504;BME280;10913;51.992;9.228;2022-09-03T04:26:31;100181.84;;;13.82;80.42
21504;BME280;10913;51.992;9.228;2022-09-03T04:29:07;100177.56;;;13.76;80.98
21504;BME280;10913;51.992;9.228;2022-09-03T04:31:34;100178.50;;;13.74;81.42
21504;BME280;10913;51.992;9.228;2022-09-03T04:34:00;100179.44;;;13.70;81.41
21504;BME280;10913;51.992;9.228;2022-09-03T04:36:27;100166.28;;;13.65;81.77
21504;BME280;10913;51.992;9.228;2022-09-03T04:38:54;100169.84;;;13.64;82.23
21504;BME280;10913;51.992;9.228;2022-09-03T04:41:26;100176.91;;;13.64;82.31
21504;BME280;10913;51.992;9.228;2022-09-03T04:43:54;100176.91;;;13.64;82.50
21504;BME280;10913;51.992;9.228;2022-09-03T04:46:22;100179.53;;;13.65;82.65
21504;BME280;10913;51.992;9.228;2022-09-03T04:48:51;100174.28;;;13.62;83.05
21504;BME280;10913;51.992;9.228;2022-09-03T04:51:20;100175.22;;;13.60;83.02
21504;BME280;10913;51.992;9.228;2022-09-03T04:53:47;100174.28;;;13.62;82.82
21504;BME280;10913;51.992;9.228;2022-09-03T04:56:22;100171.66;;;13.61;83.08
21504;BME280;10913;51.992;9.228;2022-09-03T04:58:53;100167.22;;;13.61;83.04
21504;BME280;10913;51.992;9.228;2022-09-03T05:01:22;100172.53;;;13.61;83.51
21504;BME280;10913;51.992;9.228;2022-09-03T05:03:48;100173.41;;;13.62;83.23
21504;BME280;10913;51.992;9.228;2022-09-03T05:06:16;100174.22;;;13.65;83.73
21504;BME280;10913;51.992;9.228;2022-09-03T05:08:43;100165.41;;;13.65;83.51
21504;BME280;10913;51.992;9.228;2022-09-03T05:11:12;100168.91;;;13.67;83.91
21504;BME280;10913;51.992;9.228;2022-09-03T05:13:38;100168.00;;;13.68;84.03
21504;BME280;10913;51.992;9.228;2022-09-03T05:16:07;100182.06;;;13.71;83.96
21504;BME280;10913;51.992;9.228;2022-09-03T05:18:33;100177.53;;;13.78;83.05
21504;BME280;10913;51.992;9.228;2022-09-03T05:21:07;100171.22;;;13.82;83.50
21504;BME280;10913;51.992;9.228;2022-09-03T05:23:38;100171.97;;;13.89;83.06
21504;BME280;10913;51.992;9.228;2022-09-03T05:26:06;100170.06;;;13.95;82.65
21504;BME280;10913;51.992;9.228;2022-09-03T05:28:37;100173.41;;;14.02;82.99
21504;BME280;10913;51.992;9.228;2022-09-03T05:31:15;100176.81;;;14.08;81.94
21504;BME280;10913;51.992;9.228;2022-09-03T05:33:51;100173.97;;;14.18;82.05
21504;BME280;10913;51.992;9.228;2022-09-03T05:36:22;100180.03;;;14.23;82.21
21504;BME280;10913;51.992;9.228;2022-09-03T05:38:49;100170.16;;;14.28;81.61
21504;BME280;10913;51.992;9.228;2022-09-03T05:41:16;100176.19;;;14.36;81.36
21504;BME280;10913;51.992;9.228;2022-09-03T05:43:42;100178.63;;;14.45;81.46
21504;BME280;10913;51.992;9.228;2022-09-03T05:46:11;100177.66;;;14.49;81.32
21504;BME280;10913;51.992;9.228;2022-09-03T05:48:38;100177.44;;;14.58;80.80
21504;BME280;10913;51.992;9.228;2022-09-03T05:51:13;100179.84;;;14.67;81.01
21504;BME280;10913;51.992;9.228;2022-09-03T05:53:42;100168.19;;;14.73;80.89
21504;BME280;10913;51.992;9.228;2022-09-03T05:56:13;100179.63;;;14.76;80.76
21504;BME280;10913;51.992;9.228;2022-09-03T05:58:42;100173.31;;;14.79;81.15
21504;BME280;10913;51.992;9.228;2022-09-03T06:03:43;100179.19;;;14.93;80.29
21504;BME280;10913;51.992;9.228;2022-09-03T06:06:09;100175.47;;;14.99;79.81
21504;BME280;10913;51.992;9.228;2022-09-03T06:08:35;100177.94;;;15.06;79.42
21504;BME280;10913;51.992;9.228;2022-09-03T06:11:05;100178.63;;;15.14;79.23
21504;BME280;10913;51.992;9.228;2022-09-03T06:13:31;100176.59;;;15.23;79.30
21504;BME280;10913;51.992;9.228;2022-09-03T06:15:58;100181.72;;;15.30;79.40
21504;BME280;10913;51.992;9.228;2022-09-03T06:18:27;100185.78;;;15.43;78.13
21504;BME280;10913;51.992;9.228;2022-09-03T06:21:01;100177.50;;;15.54;77.85
21504;BME280;10913;51.992;9.228;2022-09-03T06:23:29;100186.09;;;15.64;77.30
21504;BME280;10913;51.992;9.228;2022-09-03T06:28:35;100179.88;;;15.94;76.00
21504;BME280;10913;51.992;9.228;2022-09-03T06:31:06;100179.56;;;16.03;75.88
21504;BME280;10913;51.992;9.228;2022-09-03T06:33:34;100183.72;;;16.13;75.40
21504;BME280;10913;51.992;9.228;2022-09-03T06:36:01;100179.88;;;16.22;75.10
21504;BME280;10913;51.992;9.228;2022-09-03T06:38:29;100182.22;;;16.33;75.62
21504;BME280;10913;51.992;9.228;2022-09-03T06:41:03;100173.03;;;16.41;75.23
21504;BME280;10913;51.992;9.228;2022-09-03T06:43:32;100178.94;;;16.51;75.57
21504;BME280;10913;51.992;9.228;2022-09-03T06:46:04;100179.44;;;16.64;74.49
21504;BME280;10913;51.992;9.228;2022-09-03T06:48:31;100171.91;;;16.76;73.82
21504;BME280;10913;51.992;9.228;2022-09-03T06:51:02;100177.69;;;16.89;74.75
21504;BME280;10913;51.992;9.228;2022-09-03T06:53:31;100179.88;;;17.03;74.41
21504;BME280;10913;51.992;9.228;2022-09-03T06:55:59;100174.94;;;17.17;72.60
21504;BME280;10913;51.992;9.228;2022-09-03T06:58:33;100174.31;;;17.34;72.40
21504;BME280;10913;51.992;9.228;2022-09-03T07:01:14;100173.03;;;17.69;72.83
21504;BME280;10913;51.992;9.228;2022-09-03T07:03:42;100169.94;;;18.24;70.83
21504;BME280;10913;51.992;9.228;2022-09-03T07:06:09;100171.72;;;19.30;68.71
21504;BME280;10913;51.992;9.228;2022-09-03T07:08:35;100166.94;;;21.72;63.41
21504;BME280;10913;51.992;9.228;2022-09-03T07:11:06;100156.00;;;24.55;55.44
21504;BME280;10913;51.992;9.228;2022-09-03T07:13:35;100155.16;;;27.17;51.70
21504;BME280;10913;51.992;9.228;2022-09-03T07:16:03;100145.38;;;29.44;47.57
21504;BME280;10913;51.992;9.228;2022-09-03T07:18:30;100144.88;;;31.65;45.20
21504;BME280;10913;51.992;9.228;2022-09-03T07:21:04;100152.16;;;33.37;42.15
21504;BME280;10913;51.992;9.228;2022-09-03T07:23:30;100150.72;;;34.69;41.66
21504;BME280;10913;51.992;9.228;2022-09-03T07:25:58;100144.88;;;35.86;40.28
21504;BME280;10913;51.992;9.228;2022-09-03T07:28:25;100137.66;;;37.09;39.08
21504;BME280;10913;51.992;9.228;2022-09-03T07:30:52;100131.94;;;37.85;37.81
21504;BME280;10913;51.992;9.228;2022-09-03T07:33:18;100128.47;;;37.98;37.52
21504;BME280;10913;51.992;9.228;2022-09-03T07:35:44;100129.34;;;38.28;37.26
21504;BME280;10913;51.992;9.228;2022-09-03T07:38:10;100129.56;;;38.84;36.75
21504;BME280;10913;51.992;9.228;2022-09-03T07:40:36;100126.28;;;38.74;36.40
21504;BME280;10913;51.992;9.228;2022-09-03T07:43:04;100119.56;;;39.53;36.26
21504;BME280;10913;51.992;9.228;2022-09-03T07:45:31;100124.63;;;40.12;35.77
21504;BME280;10913;51.992;9.228;2022-09-03T07:47:58;100125.66;;;40.52;34.91
21504;BME280;10913;51.992;9.228;2022-09-03T07:50:24;100120.03;;;40.39;34.84
21504;BME280;10913;51.992;9.228;2022-09-03T07:52:55;100119.34;;;39.27;35.44
21504;BME280;10913;51.992;9.228;2022-09-03T07:55:20;100118.09;;;38.87;35.92
21504;BME280;10913;51.992;9.228;2022-09-03T07:57:45;100125.16;;;38.32;36.17
21504;BME280;10913;51.992;9.228;2022-09-03T08:00:11;100128.72;;;37.30;37.14
21504;BME280;10913;51.992;9.228;2022-09-03T08:02:37;100119.66;;;36.98;37.05
21504;BME280;10913;51.992;9.228;2022-09-03T08:05:03;100125.72;;;36.01;37.71
21504;BME280;10913;51.992;9.228;2022-09-03T08:07:29;100128.47;;;34.88;39.16
21504;BME280;10913;51.992;9.228;2022-09-03T08:09:55;100125.97;;;34.45;39.03
21504;BME280;10913;51.992;9.228;2022-09-03T08:12:20;100130.66;;;34.10;39.39
21504;BME280;10913;51.992;9.228;2022-09-03T08:14:46;100138.91;;;33.59;39.78
21504;BME280;10913;51.992;9.228;2022-09-03T08:17:12;100137.94;;;33.68;40.12
21504;BME280;10913;51.992;9.228;2022-09-03T08:19:37;100143.03;;;34.22;39.74
21504;BME280;10913;51.992;9.228;2022-09-03T08:22:04;100139.28;;;34.90;39.06
21504;BME280;10913;51.992;9.228;2022-09-03T08:24:30;100131.25;;;34.97;38.97
21504;BME280;10913;51.992;9.228;2022-09-03T08:26:55;100141.00;;;35.07;38.42
21504;BME280;10913;51.992;9.228;2022-09-03T08:29:20;100136.84;;;34.71;38.71
21504;BME280;10913;51.992;9.228;2022-09-03T08:31:46;100133.97;;;34.88;39.41
21504;BME280;10913;51.992;9.228;2022-09-03T08:34:11;100128.44;;;35.21;39.20
21504;BME280;10913;51.992;9.228;2022-09-03T08:36:39;100137.25;;;35.33;38.63
21504;BME280;10913;51.992;9.228;2022-09-03T08:39:07;100133.25;;;35.19;39.00
21504;BME280;10913;51.992;9.228;2022-09-03T08:46:54;100139.41;;;34.72;39.18
21504;BME280;10913;51.992;9.228;2022-09-03T08:49:49;100128.28;;;33.81;39.85
21504;BME280;10913;51.992;9.228;2022-09-03T08:54:48;100145.09;;;31.91;41.53
21504;BME280;10913;51.992;9.228;2022-09-03T08:57:18;100149.78;;;31.71;42.05
21504;BME280;10913;51.992;9.228;2022-09-03T08:59:45;100137.06;;;31.24;42.87
21504;BME280;10913;51.992;9.228;2022-09-03T09:02:23;100139.06;;;30.54;43.73
21504;BME280;10913;51.992;9.228;2022-09-03T09:10:44;100140.72;;;29.35;45.15
21504;BME280;10913;51.992;9.228;2022-09-03T09:13:26;100131.69;;;28.93;45.76
21504;BME280;10913;51.992;9.228;2022-09-03T09:21:19;100131.25;;;27.44;48.06
21504;BME280;10913;51.992;9.228;2022-09-03T09:23:48;100127.75;;;27.20;48.48
21504;BME280;10913;51.992;9.228;2022-09-03T09:26:16;100126.66;;;27.22;48.84
21504;BME280;10913;51.992;9.228;2022-09-03T09:28:45;100123.38;;;27.41;49.16
21504;BME280;10913;51.992;9.228;2022-09-03T09:31:14;100128.25;;;27.71;47.85
21504;BME280;10913;51.992;9.228;2022-09-03T09:33:40;100127.34;;;27.82;47.96
21504;BME280;10913;51.992;9.228;2022-09-03T09:36:14;100127.13;;;27.62;48.57
21504;BME280;10913;51.992;9.228;2022-09-03T09:38:42;100121.41;;;27.32;48.67
21504;BME280;10913;51.992;9.228;2022-09-03T09:41:18;100119.00;;;27.05;48.50
21504;BME280;10913;51.992;9.228;2022-09-03T09:43:45;100110.56;;;26.62;49.48
21504;BME280;10913;51.992;9.228;2022-09-03T09:46:15;100112.78;;;26.57;49.58
21504;BME280;10913;51.992;9.228;2022-09-03T09:48:49;100108.00;;;26.36;49.23
21504;BME280;10913;51.992;9.228;2022-09-03T09:51:30;100111.56;;;26.37;50.19
21504;BME280;10913;51.992;9.228;2022-09-03T09:56:25;100102.91;;;26.19;50.56
21504;BME280;10913;51.992;9.228;2022-09-03T09:59:07;100102.91;;;26.19;50.81
21504;BME280;10913;51.992;9.228;2022-09-03T10:01:38;100098.19;;;26.10;50.86
21504;BME280;10913;51.992;9.228;2022-09-03T10:04:12;100101.72;;;26.23;51.08
21504;BME280;10913;51.992;9.228;2022-09-03T10:06:52;100100.25;;;26.43;50.14
21504;BME280;10913;51.992;9.228;2022-09-03T10:09:21;100097.88;;;26.38;49.47
21504;BME280;10913;51.992;9.228;2022-09-03T10:12:19;100092.22;;;26.18;49.56
21504;BME280;10913;51.992;9.228;2022-09-03T10:15:02;100084.53;;;26.12;49.91
21504;BME280;10913;51.992;9.228;2022-09-03T10:20:38;100088.66;;;26.17;49.25
21504;BME280;10913;51.992;9.228;2022-09-03T10:23:17;100089.84;;;26.13;49.27
21504;BME280;10913;51.992;9.228;2022-09-03T10:28:31;100081.84;;;26.12;49.62
21504;BME280;10913;51.992;9.228;2022-09-03T10:33:47;100082.19;;;25.70;49.17
21504;BME280;10913;51.992;9.228;2022-09-03T10:39:29;100082.06;;;25.72;50.90
21504;BME280;10913;51.992;9.228;2022-09-03T10:50:36;100072.00;;;25.74;50.01
21504;BME280;10913;51.992;9.228;2022-09-03T10:56:12;100060.38;;;25.85;49.51
21504;BME280;10913;51.992;9.228;2022-09-03T11:04:31;100056.47;;;25.89;50.05
21504;BME280;10913;51.992;9.228;2022-09-03T11:07:04;100058.94;;;25.92;49.29
21504;BME280;10913;51.992;9.228;2022-09-03T11:09:40;100060.16;;;25.88;50.03
21504;BME280;10913;51.992;9.228;2022-09-03T11:14:47;100053.91;;;25.98;50.57
21504;BME280;10913;51.992;9.228;2022-09-03T11:17:23;100045.19;;;25.95;49.45
21504;BME280;10913;51.992;9.228;2022-09-03T11:20:06;100050.59;;;25.95;49.97
21504;BME280;10913;51.992;9.228;2022-09-03T11:22:35;100039.69;;;25.84;49.34
21504;BME280;10913;51.992;9.228;2022-09-03T11:25:04;100041.25;;;25.99;50.54
21504;BME280;10913;51.992;9.228;2022-09-03T11:30:08;100039.03;;;26.17;50.04
21504;BME280;10913;51.992;9.228;2022-09-03T11:32:48;100033.13;;;25.99;49.23
21504;BME280;10913;51.992;9.228;2022-09-03T11:35:37;100037.63;;;25.87;49.72
21504;BME280;10913;51.992;9.228;2022-09-03T11:38:05;100026.38;;;25.81;49.42
21504;BME280;10913;51.992;9.228;2022-09-03T11:40:35;100032.97;;;25.89;50.57
21504;BME280;10913;51.992;9.228;2022-09-03T11:43:26;100032.44;;;25.84;49.97
21504;BME280;10913;51.992;9.228;2022-09-03T11:46:13;100037.47;;;25.78;49.89
21504;BME280;10913;51.992;9.228;2022-09-03T11:48:52;100035.84;;;25.62;49.98
21504;BME280;10913;51.992;9.228;2022-09-03T11:51:32;100029.03;;;25.69;50.24
21504;BME280;10913;51.992;9.228;2022-09-03T11:54:42;100027.34;;;25.80;50.65
21504;BME280;10913;51.992;9.228;2022-09-03T11:56:49;100033.28;;;25.97;50.50
21504;BME280;10913;51.992;9.228;2022-09-03T11:59:25;100016.16;;;25.97;49.75
21504;BME280;10913;51.992;9.228;2022-09-03T12:07:45;100022.31;;;25.62;50.57
21504;BME280;10913;51.992;9.228;2022-09-03T12:15:09;100029.84;;;25.83;50.19
21504;BME280;10913;51.992;9.228;2022-09-03T12:20:36;100018.56;;;25.89;50.50
21504;BME280;10913;51.992;9.228;2022-09-03T12:23:01;100022.91;;;25.79;50.26
21504;BME280;10913;51.992;9.228;2022-09-03T12:25:27;100026.31;;;25.69;50.55
21504;BME280;10913;51.992;9.228;2022-09-03T12:27:53;100023.63;;;25.57;49.97
21504;BME280;10913;51.992;9.228;2022-09-03T12:30:22;100012.59;;;25.47;51.06
21504;BME280;10913;51.992;9.228;2022-09-03T12:32:48;100010.00;;;25.46;51.18
21504;BME280;10913;51.992;9.228;2022-09-03T12:35:19;100004.38;;;25.49;51.11
21504;BME280;10913;51.992;9.228;2022-09-03T12:37:45;100018.66;;;25.38;50.34
21504;BME280;10913;51.992;9.228;2022-09-03T12:40:22;100020.22;;;25.29;50.83
21504;BME280;10913;51.992;9.228;2022-09-03T12:42:48;100021.97;;;25.18;50.94
21504;BME280;10913;51.992;9.228;2022-09-03T12:45:18;100014.50;;;25.09;50.80
21504;BME280;10913;51.992;9.228;2022-09-03T12:47:44;100014.41;;;25.10;52.09
21504;BME280;10913;51.992;9.228;2022-09-03T12:50:15;99999.91;;;25.11;51.53
21504;BME280;10913;51.992;9.228;2022-09-03T12:52:47;100011.00;;;25.19;51.73
21504;BME280;10913;51.992;9.228;2022-09-03T12:58:04;100005.19;;;25.13;51.28
21504;BME280;10913;51.992;9.228;2022-09-03T13:00:35;100001.53;;;25.14;51.39
21504;BME280;10913;51.992;9.228;2022-09-03T13:03:51;100000.09;;;25.21;51.33
21504;BME280;10913;51.992;9.228;2022-09-03T13:05:55;99996.41;;;25.22;51.26
21504;BME280;10913;51.992;9.228;2022-09-03T13:08:26;100000.19;;;25.32;51.71
21504;BME280;10913;51.992;9.228;2022-09-03T13:10:58;99993.16;;;25.29;50.40
21504;BME280;10913;51.992;9.228;2022-09-03T13:13:30;99993.91;;;25.31;52.10
21504;BME280;10913;51.992;9.228;2022-09-03T13:16:12;99990.63;;;25.39;51.60
21504;BME280;10913;51.992;9.228;2022-09-03T13:19:00;99987.38;;;25.47;50.52
21504;BME280;10913;51.992;9.228;2022-09-03T13:21:47;99995.72;;;25.44;50.52
21504;BME280;10913;51.992;9.228;2022-09-03T13:35:39;100003.84;;;25.44;51.17
21504;BME280;10913;51.992;9.228;2022-09-03T13:41:17;99994.84;;;25.43;51.07
21504;BME280;10913;51.992;9.228;2022-09-03T13:43:56;99998.25;;;25.34;50.62
21504;BME280;10913;51.992;9.228;2022-09-03T13:46:34;99991.75;;;25.36;50.47
21504;BME280;10913;51.992;9.228;2022-09-03T13:49:16;99985.38;;;25.37;51.23
21504;BME280;10913;51.992;9.228;2022-09-03T13:52:11;99994.00;;;25.42;50.54
21504;BME280;10913;51.992;9.228;2022-09-03T13:54:50;99995.31;;;25.37;50.14
21504;BME280;10913;51.992;9.228;2022-09-03T13:57:43;99993.69;;;25.34;50.19
21504;BME280;10913;51.992;9.228;2022-09-03T14:00:12;99979.53;;;25.31;50.14
21504;BME280;10913;51.992;9.228;2022-09-03T14:06:02;99983.00;;;25.33;50.28
21504;BME280;10913;51.992;9.228;2022-09-03T14:14:12;99982.19;;;25.44;49.70
21504;BME280;10913;51.992;9.228;2022-09-03T14:17:21;99991.75;;;25.36;50.33
21504;BME280;10913;51.992;9.228;2022-09-03T14:20:03;99982.13;;;25.20;49.71
21504;BME280;10913;51.992;9.228;2022-09-03T14:22:58;99983.88;;;25.21;50.41
21504;BME280;10913;51.992;9.228;2022-09-03T14:25:28;99976.84;;;25.18;50.88
21504;BME280;10913;51.992;9.228;2022-09-03T14:28:10;99993.81;;;25.20;50.09
21504;BME280;10913;51.992;9.228;2022-09-03T14:33:50;99990.81;;;25.12;50.21
21504;BME280;10913;51.992;9.228;2022-09-03T14:36:30;99986.50;;;25.10;49.88
21504;BME280;10913;51.992;9.228;2022-09-03T14:59:09;99994.38;;;25.00;50.33
21504;BME280;10913;51.992;9.228;2022-09-03T15:01:40;99990.59;;;24.90;49.73
21504;BME280;10913;51.992;9.228;2022-09-03T15:09:37;99999.91;;;24.98;49.57
21504;BME280;10913;51.992;9.228;2022-09-03T15:14:56;99984.09;;;24.92;49.35
21504;BME280;10913;51.992;9.228;2022-09-03T15:35:00;99991.88;;;24.84;49.72
21504;BME280;10913;51.992;9.228;2022-09-03T15:40:08;99993.28;;;24.77;50.13
21504;BME280;10913;51.992;9.228;2022-09-03T15:42:35;99986.38;;;24.73;49.68
21504;BME280;10913;51.992;9.228;2022-09-03T15:45:07;99990.59;;;24.77;49.68
21504;BME280;10913;51.992;9.228;2022-09-03T15:47:52;99994.28;;;24.76;50.21
21504;BME280;10913;51.992;9.228;2022-09-03T15:50:34;99989.94;;;24.73;50.24
21504;BME280;10913;51.992;9.228;2022-09-03T15:53:26;99990.03;;;24.72;50.27
21504;BME280;10913;51.992;9.228;2022-09-03T15:56:19;99985.63;;;24.71;50.75
21504;BME280;10913;51.992;9.228;2022-09-03T15:59:00;99991.00;;;24.71;50.20
21504;BME280;10913;51.992;9.228;2022-09-03T16:07:44;99991.75;;;24.60;49.78
21504;BME280;10913;51.992;9.228;2022-09-03T16:10:09;99992.19;;;24.54;49.41
21504;BME280;10913;51.992;9.228;2022-09-03T16:15:35;99996.28;;;24.47;49.33
21504;BME280;10913;51.992;9.228;2022-09-03T16:21:30;100002.19;;;24.39;49.75
21504;BME280;10913;51.992;9.228;2022-09-03T16:24:04;100001.56;;;24.36;50.04
21504;BME280;10913;51.992;9.228;2022-09-03T16:26:39;99999.84;;;24.35;49.64
21504;BME280;10913;51.992;9.228;2022-09-03T16:29:10;99998.63;;;24.26;49.76
21504;BME280;10913;51.992;9.228;2022-09-03T16:32:05;100004.00;;;24.26;49.66
21504;BME280;10913;51.992;9.228;2022-09-03T16:55:07;100009.47;;;24.12;50.51
21504;BME280;10913;51.992;9.228;2022-09-03T17:06:35;100021.94;;;24.00;50.44
21504;BME280;10913;51.992;9.228;2022-09-03T17:12:19;100016.63;;;23.99;50.07
21504;BME280;10913;51.992;9.228;2022-09-03T17:20:24;100012.16;;;23.85;50.34
21504;BME280;10913;51.992;9.228;2022-09-03T17:25:56;100017.94;;;23.79;50.16
21504;BME280;10913;51.992;9.228;2022-09-03T17:34:22;100021.84;;;23.75;50.52
21504;BME280;10913;51.992;9.228;2022-09-03T17:42:32;100026.28;;;23.62;50.70
21504;BME280;10913;51.992;9.228;2022-09-03T17:45:13;100036.41;;;23.58;51.19